sensor_id;sensor_type;location;lat;lon;timestamp;P1;durP1;ratioP1;P2;durP2;ratioP2
79611;SDS011;69094;48.154;11.536;2023-06-22T00:02:22;6.07;;;2.90;;
79611;SDS011;69094;48.154;11.536;2023-06-22T00:04:47;6.07;;;2.70;;
79611;SDS011;69094;48.154;11.536;2023-06-22T00:07:13;6.90;;;3.00;;
79611;SDS011;69094;48.154;11.536;2023-06-22T00:09:38;8.32;;;2.80;;
79611;SDS011;69094;48.154;11.536;2023-06-22T00:12:04;7.65;;;2.83;;
79611;SDS011;69094;48.154;11.536;2023-06-22T00:14:29;7.53;;;2.83;;
79611;SDS011;69094;48.154;11.536;2023-06-22T00:16:55;6.18;;;2.72;;
79611;SDS011;69094;48.154;11.536;2023-06-22T00:19:22;6.68;;;2.83;;
79611;SDS011;69094;48.154;11.536;2023-06-22T00:21:48;5.68;;;2.42;;
79611;SDS011;69094;48.154;11.536;2023-06-22T00:24:18;6.03;;;2.22;;
79611;SDS011;69094;48.154;11.536;2023-06-22T00:26:44;5.70;;;2.72;;
79611;SDS011;69094;48.154;11.536;2023-06-22T00:29:09;5.60;;;2.50;;
79611;SDS011;69094;48.154;11.536;2023-06-22T00:31:35;11.33;;;3.00;;
79611;SDS011;69094;48.154;11.536;2023-06-22T00:34:00;8.05;;;2.95;;
79611;SDS011;69094;48.154;11.536;2023-06-22T00:36:25;6.87;;;2.83;;
79611;SDS011;69094;48.154;11.536;2023-06-22T00:38:51;5.90;;;2.70;;
79611;SDS011;69094;48.154;11.536;2023-06-22T00:41:17;6.78;;;2.60;;
79611;SDS011;69094;48.154;11.536;2023-06-22T00:43:42;7.45;;;3.05;;
79611;SDS011;69094;48.154;11.536;2023-06-22T00:46:08;6.30;;;2.70;;
79611;SDS011;69094;48.154;11.536;2023-06-22T00:48:34;5.78;;;3.00;;
79611;SDS011;69094;48.154;11.536;2023-06-22T00:51:01;7.43;;;3.25;;
79611;SDS011;69094;48.154;11.536;2023-06-22T00:53:27;5.95;;;3.00;;
79611;SDS011;69094;48.154;11.536;2023-06-22T00:55:52;7.90;;;3.17;;
79611;SDS011;69094;48.154;11.536;2023-06-22T00:58:19;5.95;;;2.85;;
79611;SDS011;69094;48.154;11.536;2023-06-22T01:00:47;6.47;;;3.03;;
79611;SDS011;69094;48.154;11.536;2023-06-22T01:03:12;5.50;;;2.33;;
79611;SDS011;69094;48.154;11.536;2023-06-22T01:05:38;5.03;;;2.50;;
79611;SDS011;69094;48.154;11.536;2023-06-22T01:08:23;8.23;;;2.60;;
79611;SDS011;69094;48.154;11.536;2023-06-22T01:10:58;6.90;;;2.47;;
79611;SDS011;69094;48.154;11.536;2023-06-22T01:13:32;4.55;;;2.75;;
79611;SDS011;69094;48.154;11.536;2023-06-22T01:16:02;6.32;;;2.92;;
79611;SDS011;69094;48.154;11.536;2023-06-22T01:18:30;8.80;;;3.08;;
79611;SDS011;69094;48.154;11.536;2023-06-22T01:21:01;9.45;;;3.30;;
79611;SDS011;69094;48.154;11.536;2023-06-22T01:29:07;6.90;;;2.30;;
79611;SDS011;69094;48.154;11.536;2023-06-22T01:31:37;8.85;;;3.17;;
79611;SDS011;69094;48.154;11.536;2023-06-22T01:34:05;7.80;;;3.17;;
79611;SDS011;69094;48.154;11.536;2023-06-22T01:36:33;6.60;;;2.83;;
79611;SDS011;69094;48.154;11.536;2023-06-22T01:38:59;6.90;;;3.22;;
79611;SDS011;69094;48.154;11.536;2023-06-22T01:41:27;9.35;;;2.58;;
79611;SDS011;69094;48.154;11.536;2023-06-22T01:43:54;5.15;;;2.83;;
79611;SDS011;69094;48.154;11.536;2023-06-22T01:46:20;6.15;;;2.88;;
79611;SDS011;69094;48.154;11.536;2023-06-22T01:48:46;5.50;;;3.00;;
79611;SDS011;69094;48.154;11.536;2023-06-22T01:51:12;5.70;;;3.08;;
79611;SDS011;69094;48.154;11.536;2023-06-22T01:53:38;6.75;;;2.85;;
79611;SDS011;69094;48.154;11.536;2023-06-22T01:56:04;5.43;;;2.20;;
79611;SDS011;69094;48.154;11.536;2023-06-22T01:58:29;8.05;;;2.58;;
79611;SDS011;69094;48.154;11.536;2023-06-22T02:00:58;8.32;;;3.25;;
79611;SDS011;69094;48.154;11.536;2023-06-22T02:03:34;6.63;;;2.60;;
79611;SDS011;69094;48.154;11.536;2023-06-22T02:06:07;9.55;;;3.03;;
79611;SDS011;69094;48.154;11.536;2023-06-22T02:08:40;6.18;;;2.83;;
79611;SDS011;69094;48.154;11.536;2023-06-22T02:11:10;7.50;;;2.83;;
79611;SDS011;69094;48.154;11.536;2023-06-22T02:13:38;7.72;;;2.42;;
79611;SDS011;69094;48.154;11.536;2023-06-22T02:16:08;5.28;;;3.03;;
79611;SDS011;69094;48.154;11.536;2023-06-22T02:18:35;5.10;;;2.85;;
79611;SDS011;69094;48.154;11.536;2023-06-22T02:21:01;5.70;;;3.38;;
79611;SDS011;69094;48.154;11.536;2023-06-22T02:23:27;7.50;;;3.22;;
79611;SDS011;69094;48.154;11.536;2023-06-22T02:25:53;8.30;;;2.85;;
79611;SDS011;69094;48.154;11.536;2023-06-22T02:28:18;5.87;;;2.70;;
79611;SDS011;69094;48.154;11.536;2023-06-22T02:30:43;8.07;;;3.10;;
79611;SDS011;69094;48.154;11.536;2023-06-22T02:33:09;9.20;;;3.30;;
79611;SDS011;69094;48.154;11.536;2023-06-22T02:35:34;5.90;;;3.03;;
79611;SDS011;69094;48.154;11.536;2023-06-22T02:38:01;7.43;;;3.08;;
79611;SDS011;69094;48.154;11.536;2023-06-22T02:40:28;5.45;;;2.80;;
79611;SDS011;69094;48.154;11.536;2023-06-22T02:42:54;6.13;;;3.33;;
79611;SDS011;69094;48.154;11.536;2023-06-22T02:45:20;10.23;;;3.20;;
79611;SDS011;69094;48.154;11.536;2023-06-22T02:47:46;7.75;;;3.10;;
79611;SDS011;69094;48.154;11.536;2023-06-22T02:50:12;6.03;;;3.20;;
79611;SDS011;69094;48.154;11.536;2023-06-22T02:52:38;6.78;;;3.08;;
79611;SDS011;69094;48.154;11.536;2023-06-22T02:55:04;5.60;;;3.20;;
79611;SDS011;69094;48.154;11.536;2023-06-22T02:57:30;9.60;;;3.45;;
79611;SDS011;69094;48.154;11.536;2023-06-22T02:59:55;7.63;;;3.13;;
79611;SDS011;69094;48.154;11.536;2023-06-22T03:02:21;7.07;;;3.07;;
79611;SDS011;69094;48.154;11.536;2023-06-22T03:04:46;8.75;;;3.75;;
79611;SDS011;69094;48.154;11.536;2023-06-22T03:07:14;6.07;;;3.20;;
79611;SDS011;69094;48.154;11.536;2023-06-22T03:09:40;10.95;;;4.00;;
79611;SDS011;69094;48.154;11.536;2023-06-22T03:12:07;7.35;;;3.33;;
79611;SDS011;69094;48.154;11.536;2023-06-22T03:14:32;8.45;;;3.10;;
79611;SDS011;69094;48.154;11.536;2023-06-22T03:16:58;8.00;;;3.17;;
79611;SDS011;69094;48.154;11.536;2023-06-22T03:19:28;6.22;;;3.30;;
79611;SDS011;69094;48.154;11.536;2023-06-22T03:21:54;9.57;;;3.30;;
79611;SDS011;69094;48.154;11.536;2023-06-22T03:24:20;7.28;;;3.42;;
79611;SDS011;69094;48.154;11.536;2023-06-22T03:26:45;7.45;;;3.33;;
79611;SDS011;69094;48.154;11.536;2023-06-22T03:29:12;5.97;;;3.08;;
79611;SDS011;69094;48.154;11.536;2023-06-22T03:31:37;8.40;;;3.85;;
79611;SDS011;69094;48.154;11.536;2023-06-22T03:34:03;7.07;;;3.20;;
79611;SDS011;69094;48.154;11.536;2023-06-22T03:36:28;5.15;;;3.38;;
79611;SDS011;69094;48.154;11.536;2023-06-22T03:38:54;13.85;;;3.90;;
79611;SDS011;69094;48.154;11.536;2023-06-22T03:41:19;6.95;;;3.50;;
79611;SDS011;69094;48.154;11.536;2023-06-22T03:43:45;7.30;;;3.25;;
79611;SDS011;69094;48.154;11.536;2023-06-22T03:46:10;9.88;;;3.35;;
79611;SDS011;69094;48.154;11.536;2023-06-22T03:48:36;7.30;;;3.50;;
79611;SDS011;69094;48.154;11.536;2023-06-22T03:51:01;8.82;;;3.75;;
79611;SDS011;69094;48.154;11.536;2023-06-22T03:53:28;8.35;;;3.50;;
79611;SDS011;69094;48.154;11.536;2023-06-22T03:55:53;5.88;;;3.08;;
79611;SDS011;69094;48.154;11.536;2023-06-22T03:58:19;9.98;;;3.67;;
79611;SDS011;69094;48.154;11.536;2023-06-22T04:00:45;11.05;;;3.60;;
79611;SDS011;69094;48.154;11.536;2023-06-22T04:03:12;8.65;;;3.40;;
79611;SDS011;69094;48.154;11.536;2023-06-22T04:05:39;7.95;;;3.42;;
79611;SDS011;69094;48.154;11.536;2023-06-22T04:08:05;10.02;;;3.42;;
79611;SDS011;69094;48.154;11.536;2023-06-22T04:10:31;11.52;;;3.78;;
79611;SDS011;69094;48.154;11.536;2023-06-22T04:12:57;6.68;;;3.25;;
79611;SDS011;69094;48.154;11.536;2023-06-22T04:15:22;7.28;;;3.25;;
79611;SDS011;69094;48.154;11.536;2023-06-22T04:17:48;10.25;;;3.45;;
79611;SDS011;69094;48.154;11.536;2023-06-22T04:20:13;8.18;;;3.65;;
79611;SDS011;69094;48.154;11.536;2023-06-22T04:22:38;9.15;;;3.70;;
79611;SDS011;69094;48.154;11.536;2023-06-22T04:25:05;7.83;;;3.90;;
79611;SDS011;69094;48.154;11.536;2023-06-22T04:27:32;9.48;;;3.45;;
79611;SDS011;69094;48.154;11.536;2023-06-22T04:30:02;8.02;;;3.50;;
79611;SDS011;69094;48.154;11.536;2023-06-22T04:32:28;6.43;;;3.53;;
79611;SDS011;69094;48.154;11.536;2023-06-22T04:34:54;9.57;;;4.30;;
79611;SDS011;69094;48.154;11.536;2023-06-22T04:37:19;11.25;;;3.90;;
79611;SDS011;69094;48.154;11.536;2023-06-22T04:39:48;9.20;;;4.63;;
79611;SDS011;69094;48.154;11.536;2023-06-22T04:42:14;8.98;;;4.05;;
79611;SDS011;69094;48.154;11.536;2023-06-22T04:44:40;7.05;;;3.63;;
79611;SDS011;69094;48.154;11.536;2023-06-22T04:47:06;6.70;;;4.00;;
79611;SDS011;69094;48.154;11.536;2023-06-22T04:49:33;8.02;;;4.13;;
79611;SDS011;69094;48.154;11.536;2023-06-22T04:52:09;9.15;;;3.80;;
79611;SDS011;69094;48.154;11.536;2023-06-22T04:54:37;15.15;;;4.18;;
79611;SDS011;69094;48.154;11.536;2023-06-22T04:57:04;9.60;;;4.82;;
79611;SDS011;69094;48.154;11.536;2023-06-22T04:59:35;14.27;;;4.05;;
79611;SDS011;69094;48.154;11.536;2023-06-22T05:02:01;9.57;;;4.13;;
79611;SDS011;69094;48.154;11.536;2023-06-22T05:04:30;11.57;;;3.83;;
79611;SDS011;69094;48.154;11.536;2023-06-22T05:07:00;8.02;;;4.13;;
79611;SDS011;69094;48.154;11.536;2023-06-22T05:09:27;9.63;;;3.83;;
79611;SDS011;69094;48.154;11.536;2023-06-22T05:11:53;10.98;;;4.57;;
79611;SDS011;69094;48.154;11.536;2023-06-22T05:14:18;8.57;;;4.03;;
79611;SDS011;69094;48.154;11.536;2023-06-22T05:16:44;8.88;;;4.30;;
79611;SDS011;69094;48.154;11.536;2023-06-22T05:19:10;10.65;;;4.13;;
79611;SDS011;69094;48.154;11.536;2023-06-22T05:21:36;9.10;;;4.25;;
79611;SDS011;69094;48.154;11.536;2023-06-22T05:24:02;9.48;;;4.20;;
79611;SDS011;69094;48.154;11.536;2023-06-22T05:26:28;9.63;;;4.80;;
79611;SDS011;69094;48.154;11.536;2023-06-22T05:28:55;10.13;;;4.65;;
79611;SDS011;69094;48.154;11.536;2023-06-22T05:31:21;9.15;;;5.47;;
79611;SDS011;69094;48.154;11.536;2023-06-22T05:33:47;10.70;;;4.70;;
79611;SDS011;69094;48.154;11.536;2023-06-22T05:36:14;9.68;;;4.38;;
79611;SDS011;69094;48.154;11.536;2023-06-22T05:38:40;9.90;;;5.07;;
79611;SDS011;69094;48.154;11.536;2023-06-22T05:41:06;12.80;;;5.28;;
79611;SDS011;69094;48.154;11.536;2023-06-22T05:43:32;14.38;;;5.28;;
79611;SDS011;69094;48.154;11.536;2023-06-22T05:45:57;10.52;;;4.72;;
79611;SDS011;69094;48.154;11.536;2023-06-22T05:48:23;9.68;;;4.70;;
79611;SDS011;69094;48.154;11.536;2023-06-22T05:50:48;9.55;;;4.65;;
79611;SDS011;69094;48.154;11.536;2023-06-22T05:53:14;8.85;;;4.68;;
79611;SDS011;69094;48.154;11.536;2023-06-22T05:55:39;8.82;;;5.05;;
79611;SDS011;69094;48.154;11.536;2023-06-22T05:58:05;19.77;;;8.27;;
79611;SDS011;69094;48.154;11.536;2023-06-22T06:00:30;14.73;;;5.70;;
79611;SDS011;69094;48.154;11.536;2023-06-22T06:02:56;11.48;;;4.78;;
79611;SDS011;69094;48.154;11.536;2023-06-22T06:05:21;11.32;;;4.97;;
79611;SDS011;69094;48.154;11.536;2023-06-22T06:07:48;12.35;;;5.40;;
79611;SDS011;69094;48.154;11.536;2023-06-22T06:10:14;13.75;;;5.60;;
79611;SDS011;69094;48.154;11.536;2023-06-22T06:12:40;10.75;;;5.25;;
79611;SDS011;69094;48.154;11.536;2023-06-22T06:15:05;10.18;;;5.10;;
79611;SDS011;69094;48.154;11.536;2023-06-22T06:17:31;12.65;;;5.03;;
79611;SDS011;69094;48.154;11.536;2023-06-22T06:19:56;13.20;;;5.05;;
79611;SDS011;69094;48.154;11.536;2023-06-22T06:22:23;10.63;;;5.25;;
79611;SDS011;69094;48.154;11.536;2023-06-22T06:24:49;9.48;;;4.70;;
79611;SDS011;69094;48.154;11.536;2023-06-22T06:27:14;14.95;;;6.03;;
79611;SDS011;69094;48.154;11.536;2023-06-22T06:29:40;10.43;;;4.88;;
79611;SDS011;69094;48.154;11.536;2023-06-22T06:32:05;13.67;;;5.50;;
79611;SDS011;69094;48.154;11.536;2023-06-22T06:34:31;12.25;;;5.03;;
79611;SDS011;69094;48.154;11.536;2023-06-22T06:36:57;12.90;;;5.68;;
79611;SDS011;69094;48.154;11.536;2023-06-22T06:39:22;8.95;;;4.50;;
79611;SDS011;69094;48.154;11.536;2023-06-22T06:41:48;12.32;;;5.05;;
79611;SDS011;69094;48.154;11.536;2023-06-22T06:44:13;9.68;;;5.10;;
79611;SDS011;69094;48.154;11.536;2023-06-22T06:46:39;16.25;;;6.82;;
79611;SDS011;69094;48.154;11.536;2023-06-22T06:49:04;14.70;;;5.65;;
79611;SDS011;69094;48.154;11.536;2023-06-22T06:51:30;17.97;;;6.40;;
79611;SDS011;69094;48.154;11.536;2023-06-22T06:53:55;12.23;;;4.77;;
79611;SDS011;69094;48.154;11.536;2023-06-22T06:56:20;13.03;;;5.70;;
79611;SDS011;69094;48.154;11.536;2023-06-22T06:58:46;15.50;;;5.70;;
79611;SDS011;69094;48.154;11.536;2023-06-22T07:01:11;10.65;;;5.30;;
79611;SDS011;69094;48.154;11.536;2023-06-22T07:03:37;14.68;;;5.40;;
79611;SDS011;69094;48.154;11.536;2023-06-22T07:06:03;13.90;;;5.10;;
79611;SDS011;69094;48.154;11.536;2023-06-22T07:08:29;11.82;;;5.10;;
79611;SDS011;69094;48.154;11.536;2023-06-22T07:10:54;8.25;;;5.10;;
79611;SDS011;69094;48.154;11.536;2023-06-22T07:13:20;14.43;;;5.88;;
79611;SDS011;69094;48.154;11.536;2023-06-22T07:15:45;10.50;;;5.28;;
79611;SDS011;69094;48.154;11.536;2023-06-22T07:18:11;9.23;;;4.97;;
79611;SDS011;69094;48.154;11.536;2023-06-22T07:20:36;15.55;;;6.97;;
79611;SDS011;69094;48.154;11.536;2023-06-22T07:23:02;14.85;;;5.22;;
79611;SDS011;69094;48.154;11.536;2023-06-22T07:25:27;14.38;;;5.55;;
79611;SDS011;69094;48.154;11.536;2023-06-22T07:27:57;11.57;;;5.47;;
79611;SDS011;69094;48.154;11.536;2023-06-22T07:30:26;9.77;;;4.95;;
79611;SDS011;69094;48.154;11.536;2023-06-22T07:32:52;16.95;;;5.70;;
79611;SDS011;69094;48.154;11.536;2023-06-22T07:35:17;9.55;;;5.00;;
79611;SDS011;69094;48.154;11.536;2023-06-22T07:37:43;11.95;;;5.15;;
79611;SDS011;69094;48.154;11.536;2023-06-22T07:40:09;13.13;;;5.07;;
79611;SDS011;69094;48.154;11.536;2023-06-22T07:42:35;13.50;;;5.22;;
79611;SDS011;69094;48.154;11.536;2023-06-22T07:45:00;14.00;;;6.28;;
79611;SDS011;69094;48.154;11.536;2023-06-22T07:47:27;14.20;;;5.68;;
79611;SDS011;69094;48.154;11.536;2023-06-22T07:49:53;12.27;;;4.80;;
79611;SDS011;69094;48.154;11.536;2023-06-22T07:52:20;12.50;;;5.30;;
79611;SDS011;69094;48.154;11.536;2023-06-22T07:54:46;13.30;;;5.80;;
79611;SDS011;69094;48.154;11.536;2023-06-22T07:57:12;13.27;;;5.28;;
79611;SDS011;69094;48.154;11.536;2023-06-22T07:59:37;10.52;;;4.80;;
79611;SDS011;69094;48.154;11.536;2023-06-22T08:02:03;17.38;;;5.63;;
79611;SDS011;69094;48.154;11.536;2023-06-22T08:04:29;19.42;;;6.10;;
79611;SDS011;69094;48.154;11.536;2023-06-22T08:06:56;12.20;;;4.88;;
79611;SDS011;69094;48.154;11.536;2023-06-22T08:09:22;13.15;;;4.97;;
79611;SDS011;69094;48.154;11.536;2023-06-22T08:11:47;16.55;;;5.97;;
79611;SDS011;69094;48.154;11.536;2023-06-22T08:14:14;8.85;;;5.20;;
79611;SDS011;69094;48.154;11.536;2023-06-22T08:16:40;9.82;;;5.22;;
79611;SDS011;69094;48.154;11.536;2023-06-22T08:19:06;17.67;;;6.15;;
79611;SDS011;69094;48.154;11.536;2023-06-22T08:21:32;16.60;;;5.45;;
79611;SDS011;69094;48.154;11.536;2023-06-22T08:23:57;11.05;;;5.20;;
79611;SDS011;69094;48.154;11.536;2023-06-22T08:26:22;16.65;;;5.38;;
79611;SDS011;69094;48.154;11.536;2023-06-22T08:28:48;11.85;;;5.25;;
79611;SDS011;69094;48.154;11.536;2023-06-22T08:31:13;10.98;;;5.45;;
79611;SDS011;69094;48.154;11.536;2023-06-22T08:33:39;9.18;;;5.38;;
79611;SDS011;69094;48.154;11.536;2023-06-22T08:36:05;11.85;;;5.93;;
79611;SDS011;69094;48.154;11.536;2023-06-22T08:38:31;8.48;;;5.03;;
79611;SDS011;69094;48.154;11.536;2023-06-22T08:40:56;12.23;;;4.85;;
79611;SDS011;69094;48.154;11.536;2023-06-22T08:43:22;10.45;;;5.15;;
79611;SDS011;69094;48.154;11.536;2023-06-22T08:45:47;10.80;;;6.10;;
79611;SDS011;69094;48.154;11.536;2023-06-22T08:48:13;18.38;;;5.63;;
79611;SDS011;69094;48.154;11.536;2023-06-22T08:50:38;13.93;;;5.32;;
79611;SDS011;69094;48.154;11.536;2023-06-22T08:53:05;9.85;;;5.10;;
79611;SDS011;69094;48.154;11.536;2023-06-22T08:55:31;12.07;;;5.88;;
79611;SDS011;69094;48.154;11.536;2023-06-22T08:57:56;14.50;;;5.18;;
79611;SDS011;69094;48.154;11.536;2023-06-22T09:00:22;10.65;;;4.95;;
79611;SDS011;69094;48.154;11.536;2023-06-22T09:02:47;12.43;;;4.97;;
79611;SDS011;69094;48.154;11.536;2023-06-22T09:05:13;11.43;;;5.50;;
79611;SDS011;69094;48.154;11.536;2023-06-22T09:07:38;8.82;;;5.15;;
79611;SDS011;69094;48.154;11.536;2023-06-22T09:10:04;13.02;;;5.53;;
79611;SDS011;69094;48.154;11.536;2023-06-22T09:12:30;9.85;;;5.28;;
79611;SDS011;69094;48.154;11.536;2023-06-22T09:14:57;10.40;;;5.40;;
79611;SDS011;69094;48.154;11.536;2023-06-22T09:17:25;13.88;;;5.65;;
79611;SDS011;69094;48.154;11.536;2023-06-22T09:19:50;17.33;;;5.85;;
79611;SDS011;69094;48.154;11.536;2023-06-22T09:22:16;15.90;;;4.85;;
79611;SDS011;69094;48.154;11.536;2023-06-22T09:24:41;13.13;;;4.90;;
79611;SDS011;69094;48.154;11.536;2023-06-22T09:27:07;12.07;;;4.97;;
79611;SDS011;69094;48.154;11.536;2023-06-22T09:29:32;15.32;;;6.00;;
79611;SDS011;69094;48.154;11.536;2023-06-22T09:31:59;11.85;;;5.70;;
79611;SDS011;69094;48.154;11.536;2023-06-22T09:34:24;13.27;;;6.07;;
79611;SDS011;69094;48.154;11.536;2023-06-22T09:36:50;12.45;;;5.63;;
79611;SDS011;69094;48.154;11.536;2023-06-22T09:39:16;17.87;;;5.93;;
79611;SDS011;69094;48.154;11.536;2023-06-22T09:41:42;14.15;;;5.15;;
79611;SDS011;69094;48.154;11.536;2023-06-22T09:44:08;8.98;;;4.75;;
79611;SDS011;69094;48.154;11.536;2023-06-22T09:46:33;15.18;;;5.32;;
79611;SDS011;69094;48.154;11.536;2023-06-22T09:48:58;12.53;;;4.90;;
79611;SDS011;69094;48.154;11.536;2023-06-22T09:51:24;9.97;;;5.33;;
79611;SDS011;69094;48.154;11.536;2023-06-22T09:53:50;12.77;;;5.47;;
79611;SDS011;69094;48.154;11.536;2023-06-22T09:56:16;10.30;;;4.95;;
79611;SDS011;69094;48.154;11.536;2023-06-22T09:58:41;11.32;;;4.43;;
79611;SDS011;69094;48.154;11.536;2023-06-22T10:01:08;15.02;;;5.03;;
79611;SDS011;69094;48.154;11.536;2023-06-22T10:03:33;15.25;;;5.53;;
79611;SDS011;69094;48.154;11.536;2023-06-22T10:05:59;12.75;;;5.82;;
79611;SDS011;69094;48.154;11.536;2023-06-22T10:08:24;12.23;;;5.38;;
79611;SDS011;69094;48.154;11.536;2023-06-22T10:10:49;13.03;;;5.13;;
79611;SDS011;69094;48.154;11.536;2023-06-22T10:13:15;13.60;;;5.45;;
79611;SDS011;69094;48.154;11.536;2023-06-22T10:15:41;15.10;;;5.33;;
79611;SDS011;69094;48.154;11.536;2023-06-22T10:18:07;17.10;;;5.50;;
79611;SDS011;69094;48.154;11.536;2023-06-22T10:20:33;11.77;;;5.00;;
79611;SDS011;69094;48.154;11.536;2023-06-22T10:22:58;19.75;;;5.32;;
79611;SDS011;69094;48.154;11.536;2023-06-22T10:25:24;14.18;;;6.13;;
79611;SDS011;69094;48.154;11.536;2023-06-22T10:27:50;14.50;;;5.43;;
79611;SDS011;69094;48.154;11.536;2023-06-22T10:30:15;10.77;;;5.78;;
79611;SDS011;69094;48.154;11.536;2023-06-22T10:32:42;12.43;;;5.07;;
79611;SDS011;69094;48.154;11.536;2023-06-22T10:35:09;9.07;;;5.10;;
79611;SDS011;69094;48.154;11.536;2023-06-22T10:37:40;16.13;;;6.25;;
79611;SDS011;69094;48.154;11.536;2023-06-22T10:40:08;17.33;;;6.25;;
79611;SDS011;69094;48.154;11.536;2023-06-22T10:42:34;14.45;;;5.10;;
79611;SDS011;69094;48.154;11.536;2023-06-22T10:44:59;15.27;;;4.78;;
79611;SDS011;69094;48.154;11.536;2023-06-22T10:47:24;10.82;;;5.13;;
79611;SDS011;69094;48.154;11.536;2023-06-22T10:49:50;13.17;;;4.60;;
79611;SDS011;69094;48.154;11.536;2023-06-22T10:52:15;11.20;;;5.73;;
79611;SDS011;69094;48.154;11.536;2023-06-22T10:54:41;14.17;;;5.00;;
79611;SDS011;69094;48.154;11.536;2023-06-22T10:57:09;11.02;;;5.45;;
79611;SDS011;69094;48.154;11.536;2023-06-22T10:59:34;10.10;;;5.03;;
79611;SDS011;69094;48.154;11.536;2023-06-22T11:02:00;12.73;;;5.57;;
79611;SDS011;69094;48.154;11.536;2023-06-22T11:04:25;13.73;;;5.05;;
79611;SDS011;69094;48.154;11.536;2023-06-22T11:06:51;14.68;;;4.80;;
79611;SDS011;69094;48.154;11.536;2023-06-22T11:09:16;11.73;;;5.18;;
79611;SDS011;69094;48.154;11.536;2023-06-22T11:11:45;14.75;;;5.30;;
79611;SDS011;69094;48.154;11.536;2023-06-22T11:14:12;11.65;;;5.35;;
79611;SDS011;69094;48.154;11.536;2023-06-22T11:16:37;11.52;;;4.75;;
79611;SDS011;69094;48.154;11.536;2023-06-22T11:19:04;16.52;;;5.13;;
79611;SDS011;69094;48.154;11.536;2023-06-22T11:21:30;11.98;;;4.97;;
79611;SDS011;69094;48.154;11.536;2023-06-22T11:23:56;11.27;;;5.07;;
79611;SDS011;69094;48.154;11.536;2023-06-22T11:26:21;15.40;;;4.82;;
79611;SDS011;69094;48.154;11.536;2023-06-22T11:28:47;12.35;;;5.03;;
79611;SDS011;69094;48.154;11.536;2023-06-22T11:31:12;11.85;;;4.85;;
79611;SDS011;69094;48.154;11.536;2023-06-22T11:33:38;13.70;;;5.05;;
79611;SDS011;69094;48.154;11.536;2023-06-22T11:36:03;14.83;;;4.90;;
79611;SDS011;69094;48.154;11.536;2023-06-22T11:38:29;9.13;;;4.85;;
79611;SDS011;69094;48.154;11.536;2023-06-22T11:40:55;13.25;;;5.05;;
79611;SDS011;69094;48.154;11.536;2023-06-22T11:43:23;14.35;;;5.28;;
79611;SDS011;69094;48.154;11.536;2023-06-22T11:45:48;16.90;;;5.20;;
79611;SDS011;69094;48.154;11.536;2023-06-22T11:48:13;12.93;;;5.40;;
79611;SDS011;69094;48.154;11.536;2023-06-22T11:50:39;12.90;;;5.80;;
79611;SDS011;69094;48.154;11.536;2023-06-22T11:53:04;11.98;;;5.25;;
79611;SDS011;69094;48.154;11.536;2023-06-22T11:55:29;17.60;;;4.90;;
79611;SDS011;69094;48.154;11.536;2023-06-22T11:57:56;12.05;;;5.20;;
79611;SDS011;69094;48.154;11.536;2023-06-22T12:00:24;9.05;;;4.68;;
79611;SDS011;69094;48.154;11.536;2023-06-22T12:02:50;11.65;;;5.00;;
79611;SDS011;69094;48.154;11.536;2023-06-22T12:05:19;12.63;;;5.57;;
79611;SDS011;69094;48.154;11.536;2023-06-22T12:07:46;9.63;;;4.85;;
79611;SDS011;69094;48.154;11.536;2023-06-22T12:10:11;11.45;;;5.07;;
79611;SDS011;69094;48.154;11.536;2023-06-22T12:12:37;17.20;;;5.63;;
79611;SDS011;69094;48.154;11.536;2023-06-22T12:15:02;8.82;;;5.00;;
79611;SDS011;69094;48.154;11.536;2023-06-22T12:17:29;16.92;;;5.15;;
79611;SDS011;69094;48.154;11.536;2023-06-22T12:19:58;9.95;;;5.25;;
79611;SDS011;69094;48.154;11.536;2023-06-22T12:22:23;12.73;;;5.85;;
79611;SDS011;69094;48.154;11.536;2023-06-22T12:24:48;21.50;;;6.43;;
79611;SDS011;69094;48.154;11.536;2023-06-22T12:27:14;13.03;;;5.47;;
79611;SDS011;69094;48.154;11.536;2023-06-22T12:29:41;11.57;;;5.72;;
79611;SDS011;69094;48.154;11.536;2023-06-22T12:32:07;16.65;;;5.10;;
79611;SDS011;69094;48.154;11.536;2023-06-22T12:34:32;12.23;;;5.03;;
79611;SDS011;69094;48.154;11.536;2023-06-22T12:36:58;13.40;;;5.45;;
79611;SDS011;69094;48.154;11.536;2023-06-22T12:39:23;16.83;;;5.30;;
79611;SDS011;69094;48.154;11.536;2023-06-22T12:41:48;14.70;;;5.73;;
79611;SDS011;69094;48.154;11.536;2023-06-22T12:44:14;11.77;;;5.30;;
79611;SDS011;69094;48.154;11.536;2023-06-22T12:46:39;13.70;;;5.20;;
79611;SDS011;69094;48.154;11.536;2023-06-22T12:49:05;14.90;;;5.18;;
79611;SDS011;69094;48.154;11.536;2023-06-22T12:51:30;15.90;;;5.20;;
79611;SDS011;69094;48.154;11.536;2023-06-22T12:53:56;18.00;;;5.35;;
79611;SDS011;69094;48.154;11.536;2023-06-22T12:56:21;12.38;;;4.82;;
79611;SDS011;69094;48.154;11.536;2023-06-22T12:58:47;12.15;;;5.30;;
79611;SDS011;69094;48.154;11.536;2023-06-22T13:01:12;10.32;;;5.13;;
79611;SDS011;69094;48.154;11.536;2023-06-22T13:03:37;12.80;;;5.20;;
79611;SDS011;69094;48.154;11.536;2023-06-22T13:06:03;11.93;;;5.10;;
79611;SDS011;69094;48.154;11.536;2023-06-22T13:08:28;9.15;;;5.10;;
79611;SDS011;69094;48.154;11.536;2023-06-22T13:10:54;12.30;;;4.63;;
79611;SDS011;69094;48.154;11.536;2023-06-22T13:13:23;18.45;;;5.40;;
79611;SDS011;69094;48.154;11.536;2023-06-22T13:15:49;11.70;;;5.03;;
79611;SDS011;69094;48.154;11.536;2023-06-22T13:18:15;14.25;;;5.35;;
79611;SDS011;69094;48.154;11.536;2023-06-22T13:20:41;14.73;;;5.17;;
79611;SDS011;69094;48.154;11.536;2023-06-22T13:23:06;10.25;;;4.47;;
79611;SDS011;69094;48.154;11.536;2023-06-22T13:25:32;12.30;;;5.38;;
79611;SDS011;69094;48.154;11.536;2023-06-22T13:27:57;13.68;;;5.30;;
79611;SDS011;69094;48.154;11.536;2023-06-22T13:30:22;16.23;;;5.40;;
79611;SDS011;69094;48.154;11.536;2023-06-22T13:32:48;14.88;;;4.60;;
79611;SDS011;69094;48.154;11.536;2023-06-22T13:35:13;11.83;;;5.30;;
79611;SDS011;69094;48.154;11.536;2023-06-22T13:37:39;17.77;;;5.20;;
79611;SDS011;69094;48.154;11.536;2023-06-22T13:40:05;18.77;;;5.47;;
79611;SDS011;69094;48.154;11.536;2023-06-22T13:42:31;16.92;;;5.53;;
79611;SDS011;69094;48.154;11.536;2023-06-22T13:44:57;18.52;;;5.32;;
79611;SDS011;69094;48.154;11.536;2023-06-22T13:47:22;11.20;;;4.93;;
79611;SDS011;69094;48.154;11.536;2023-06-22T13:49:48;13.93;;;4.88;;
79611;SDS011;69094;48.154;11.536;2023-06-22T13:52:14;15.23;;;5.30;;
79611;SDS011;69094;48.154;11.536;2023-06-22T13:54:39;13.43;;;5.00;;
79611;SDS011;69094;48.154;11.536;2023-06-22T13:57:04;14.30;;;4.82;;
79611;SDS011;69094;48.154;11.536;2023-06-22T13:59:30;15.32;;;4.88;;
79611;SDS011;69094;48.154;11.536;2023-06-22T14:01:58;10.70;;;5.43;;
79611;SDS011;69094;48.154;11.536;2023-06-22T14:04:24;15.38;;;5.47;;
79611;SDS011;69094;48.154;11.536;2023-06-22T14:06:49;7.90;;;4.32;;
79611;SDS011;69094;48.154;11.536;2023-06-22T14:09:15;13.03;;;4.33;;
79611;SDS011;69094;48.154;11.536;2023-06-22T14:11:40;12.05;;;4.97;;
79611;SDS011;69094;48.154;11.536;2023-06-22T14:14:05;13.17;;;4.40;;
79611;SDS011;69094;48.154;11.536;2023-06-22T14:16:31;13.52;;;4.70;;
79611;SDS011;69094;48.154;11.536;2023-06-22T14:18:56;11.03;;;5.53;;
79611;SDS011;69094;48.154;11.536;2023-06-22T14:21:21;10.23;;;4.27;;
79611;SDS011;69094;48.154;11.536;2023-06-22T14:23:47;12.83;;;4.40;;
79611;SDS011;69094;48.154;11.536;2023-06-22T14:26:17;12.25;;;5.32;;